Edmundston, Canada
Current Conditions -  °F | °C
As of 11:53 PM on Tuesday 21 Oct 2014 (Local Time) from KFVE Reporting Station
Scattered Clouds Scattered Clouds  
Wind Chill: -1°   Ceiling: Unl
Heat Index:   Visibility: 10mi
Dew Point: -3°   Wind: 6mph
Humidity: 72%   Direction: 30°NNE
Pressure: 30.27"   Gusts: NA
Location:  47.37°N, 68.33°W
Report Text: KFVE 220253Z AUTO 03005KT 10SM SCT060 02/M03 A3027 RMK AO2 SLP260 T00171028 53023
Loading
Personal Weather Stations






























Interactive Weather Map
Tropical Storm Tracking
New forecast layout! Learn more

10-Day Weather Forecast

Advertisements
Track Severe Weather on mobile